Pocatello, ID (83201)

7:01 PM MST on December 08, 2016 (GMT -0700)
Bonneville Park | | Change Station
Active Advisory: Winter Weather Advisory

Elev 4606 ft 42.87 °N, 112.43 °W | Updated 16 seconds ago

Snow
Snow
23.2 °F
Feels Like 16 °F
N
5.3
Wind Variable Wind from SSW

Today
High -- | Low -- °F
--% Chance of Precip.
Yesterday
High -- | Low -- °F
Precip. -- in
Pressure 30.32 in
Visibility 5.0 miles
Clouds Mostly Cloudy 5500 ft
Overcast 7000 ft
Windchill 16 °F
Dew Point 17 °F
Humidity 78%
Rainfall 0.00 in
Snow Depth Not available.
7:48 AM 4:55 PM
Waxing Gibbous, 69% visible
METAR KPIH 090153Z 36005KT 5SM -SN BKN055 OVC070 M07/M08 A3011 RMK AO2 SLP268 P0001 T10671078 $
Pressure 30.32 in
Visibility 5.0 miles
Clouds Mostly Cloudy 5500 ft
Overcast 7000 ft
Windchill 16 °F
Dew Point 17 °F
Humidity 78%
Rainfall 0.00 in
Snow Depth Not available.
7:48 AM 4:55 PM
Waxing Gibbous, 69% visible
METAR KPIH 090153Z 36005KT 5SM -SN BKN055 OVC070 M07/M08 A3011 RMK AO2 SLP268 P0001 T10671078 $

10-Day Weather Forecast

Almanac

Astronomy

Dec. 08, 2016 Rise Set
Actual Time
Civil Twilight
Nautical Twilight
Astronomical Twilight
Moon
Length of Visible Light
Length of Day
Tomorrow will be .
, % of the Moon is Illuminated

Today's Extremes

State Highs State Lows

Community

WunderPhotos

Upload Photos

1,956,351 photos uploaded!

WunderBlog® & News

Nearby

Air Quality

  Air Quality AQ Index Pollutant
Not available.

Snow Depth

Station Depth Elevation

Earthquake Activity

City Distance Mag. Time & Date
Minimum magnitude displayed is 2.5.

Coastal Water Temperatures

Place Temperature

Stations

Nearby Weather Stations

Station Location Temp. Windchill Dew Point Humidity Wind Precip. Elev Updated Type
                   

Watches & Warnings

Winter Weather Advisory
Issued: 2:10 PM MST Dec. 8, 2016 – National Weather Service

... Winter Weather Advisory remains in effect until 11 am MST
Friday...

* impacts... accumulating snow on on roadways will make for
dangerous travel.

* Timing... through Friday morning.

* Snow accumulations... 2 to 4 inches. Areas along interstates 84
and 86 from Pocatello west may receive less than 2 inches.

* Locations... Burley... Rupert... Heyburn... Idaho Falls...
Rexburg... Pocatello... American Falls.

Precautionary/preparedness actions...

A Winter Weather Advisory for snow means that periods of snow
will cause primarily travel difficulties. Be prepared for snow
covered roads and limited visibilities... and use caution while
driving.